createdAt,value
2019-05-05T00:01:07.655Z,5.30
2019-05-05T00:03:41.218Z,5.20
2019-05-05T00:06:10.154Z,5.20
2019-05-05T00:08:39.073Z,5.20
2019-05-05T00:11:12.645Z,5.30
2019-05-05T00:13:44.758Z,5.20
2019-05-05T00:16:20.381Z,5.20
2019-05-05T00:18:50.299Z,5.20
2019-05-05T00:21:20.308Z,5.30
2019-05-05T00:23:58.447Z,5.30
2019-05-05T00:26:38.250Z,5.30
2019-05-05T00:29:07.138Z,5.30
2019-05-05T00:31:36.176Z,5.40
2019-05-05T00:34:15.731Z,5.40
2019-05-05T00:36:44.748Z,5.40
2019-05-05T00:39:14.942Z,5.40
2019-05-05T00:41:44.877Z,5.40
2019-05-05T00:44:15.341Z,5.50
2019-05-05T00:46:55.210Z,5.60
2019-05-05T00:49:26.351Z,5.50
2019-05-05T00:51:55.584Z,5.40
2019-05-05T00:54:25.943Z,5.30
2019-05-05T00:56:54.945Z,5.10
2019-05-05T00:59:25.459Z,5.10
2019-05-05T01:02:12.509Z,5.20
2019-05-05T01:04:46.972Z,5.20
2019-05-05T01:07:16.006Z,5.10
2019-05-05T01:09:45.250Z,5.10
2019-05-05T01:12:15.059Z,5.20
2019-05-05T01:14:44.761Z,5.20
2019-05-05T01:17:14.700Z,5.30
2019-05-05T01:19:46.679Z,5.30
2019-05-05T01:22:14.534Z,5.20
2019-05-05T01:24:45.748Z,5.20
2019-05-05T01:27:14.719Z,5.20
2019-05-05T01:29:45.205Z,5.20
2019-05-05T01:32:15.877Z,5.20
2019-05-05T01:34:48.160Z,5.10
2019-05-05T01:37:28.714Z,5.10
2019-05-05T01:40:05.431Z,5.20
2019-05-05T01:42:35.268Z,5.20
2019-05-05T01:45:04.629Z,5.30
2019-05-05T01:47:34.713Z,5.30
2019-05-05T01:50:17.695Z,5.30
2019-05-05T01:52:35.844Z,5.30
2019-05-05T01:55:06.459Z,5.40
2019-05-05T01:57:35.444Z,5.40
2019-05-05T02:00:06.849Z,5.50
2019-05-05T02:02:35.778Z,5.50
2019-05-05T02:05:06.776Z,5.50
2019-05-05T02:07:35.815Z,5.50
2019-05-05T02:10:06.633Z,5.50
2019-05-05T02:12:37.171Z,5.60
2019-05-05T02:15:08.236Z,5.60
2019-05-05T02:17:37.178Z,5.60
2019-05-05T02:20:07.342Z,5.70
2019-05-05T02:22:37.266Z,5.70
2019-05-05T02:25:07.318Z,5.70
2019-05-05T02:27:37.182Z,5.70
2019-05-05T02:30:17.930Z,5.70
2019-05-05T02:32:48.397Z,5.70
2019-05-05T02:35:17.338Z,5.70
2019-05-05T02:37:46.499Z,5.70
2019-05-05T02:40:16.413Z,5.70
2019-05-05T02:42:46.639Z,5.80
2019-05-05T02:45:24.891Z,5.80
2019-05-05T02:48:06.009Z,5.80
2019-05-05T02:51:00.129Z,5.80
2019-05-05T02:53:25.418Z,5.80
2019-05-05T02:55:57.609Z,5.80
2019-05-05T02:58:28.481Z,5.80
2019-05-05T03:00:59.555Z,5.80
2019-05-05T03:03:29.317Z,5.90
2019-05-05T03:06:00.008Z,5.90
2019-05-05T03:08:29.755Z,5.90
2019-05-05T03:11:00.505Z,5.90
2019-05-05T03:13:33.712Z,5.90
2019-05-05T03:16:20.953Z,5.90
2019-05-05T03:18:50.958Z,5.90
2019-05-05T03:21:20.900Z,5.90
2019-05-05T03:23:50.308Z,5.80
2019-05-05T03:26:19.896Z,5.80
2019-05-05T03:28:54.745Z,5.80
2019-05-05T03:31:26.246Z,5.80
2019-05-05T03:33:55.748Z,5.80
2019-05-05T03:36:26.139Z,5.80
2019-05-05T03:38:56.115Z,5.80
2019-05-05T03:41:30.807Z,5.80
2019-05-05T03:44:04.846Z,5.80
2019-05-05T03:46:35.532Z,5.80
2019-05-05T03:49:05.004Z,5.80
2019-05-05T03:51:34.696Z,5.80
2019-05-05T03:54:04.540Z,5.80
2019-05-05T03:56:34.778Z,5.80
2019-05-05T03:59:05.095Z,5.90
2019-05-05T04:01:54.693Z,5.90
2019-05-05T04:04:28.385Z,5.80
2019-05-05T04:06:58.874Z,5.90
2019-05-05T04:09:27.996Z,5.80
2019-05-05T04:11:57.007Z,5.80
2019-05-05T04:14:25.910Z,5.80
2019-05-05T04:17:03.656Z,5.80
2019-05-05T04:19:34.325Z,5.80
2019-05-05T04:22:04.237Z,5.80
2019-05-05T04:24:34.862Z,5.80
2019-05-05T04:27:05.534Z,5.80
2019-05-05T04:29:34.666Z,5.80
2019-05-05T04:32:04.884Z,5.80
2019-05-05T04:34:34.752Z,5.80
2019-05-05T04:37:04.267Z,5.90
2019-05-05T04:39:34.334Z,5.90
2019-05-05T04:42:04.801Z,5.90
2019-05-05T04:44:34.808Z,5.90
2019-05-05T04:47:11.249Z,5.90
2019-05-05T04:49:44.660Z,5.90
2019-05-05T04:52:17.851Z,5.90
2019-05-05T04:54:48.387Z,6.00
2019-05-05T04:57:17.312Z,6.00
2019-05-05T04:59:47.695Z,6.00
2019-05-05T05:02:34.580Z,6.00
2019-05-05T05:05:08.041Z,6.00
2019-05-05T05:07:36.983Z,6.10
2019-05-05T05:10:07.691Z,6.00
2019-05-05T05:12:36.589Z,6.10
2019-05-05T05:15:06.325Z,6.10
2019-05-05T05:17:44.268Z,6.20
2019-05-05T05:20:14.201Z,6.10
2019-05-05T05:22:43.966Z,6.20
2019-05-05T05:25:13.571Z,6.10
2019-05-05T05:27:44.321Z,6.20
2019-05-05T05:30:13.870Z,6.20
2019-05-05T05:32:44.549Z,6.30
2019-05-05T05:35:14.237Z,6.30
2019-05-05T05:37:44.821Z,6.30
2019-05-05T05:40:15.638Z,6.30
2019-05-05T05:42:44.544Z,6.30
2019-05-05T05:45:15.011Z,6.30
2019-05-05T05:48:04.095Z,6.40
2019-05-05T05:50:34.933Z,6.40
2019-05-05T05:53:04.738Z,6.40
2019-05-05T05:55:34.363Z,6.50
2019-05-05T05:58:04.858Z,6.50
2019-05-05T06:00:34.490Z,6.50
2019-05-05T06:03:03.958Z,6.50
2019-05-05T06:05:34.432Z,6.50
2019-05-05T06:08:04.722Z,6.60
2019-05-05T06:10:34.058Z,6.70
2019-05-05T06:13:04.125Z,6.60
2019-05-05T06:15:33.885Z,6.70
2019-05-05T06:18:04.660Z,6.70
2019-05-05T06:20:34.392Z,6.70
2019-05-05T06:23:04.044Z,6.70
2019-05-05T06:25:34.185Z,6.70
2019-05-05T06:28:04.211Z,6.80
2019-05-05T06:30:33.772Z,6.80
2019-05-05T06:33:04.746Z,6.90
2019-05-05T06:35:33.790Z,6.90
2019-05-05T06:38:04.634Z,6.90
2019-05-05T06:40:50.251Z,6.90
2019-05-05T06:43:34.788Z,7.00
2019-05-05T06:46:20.250Z,7.10
2019-05-05T06:48:49.222Z,7.10
2019-05-05T06:51:19.093Z,7.20
2019-05-05T06:53:47.988Z,7.20
2019-05-05T06:56:16.936Z,7.30
2019-05-05T06:58:45.885Z,7.20
2019-05-05T07:01:14.894Z,7.40
2019-05-05T07:03:43.975Z,7.40
2019-05-05T07:06:14.616Z,7.40
2019-05-05T07:08:43.976Z,7.50
2019-05-05T07:11:14.558Z,7.60
2019-05-05T07:13:44.318Z,7.60
2019-05-05T07:16:14.905Z,7.60
2019-05-05T07:18:44.591Z,7.70
2019-05-05T07:21:14.271Z,7.70
2019-05-05T07:23:44.527Z,7.70
2019-05-05T07:26:14.352Z,7.70
2019-05-05T07:28:45.040Z,7.70
2019-05-05T07:31:14.322Z,7.70
2019-05-05T07:33:43.866Z,7.70
2019-05-05T07:36:30.893Z,7.60
2019-05-05T07:38:59.794Z,7.60
2019-05-05T07:41:28.794Z,7.60
2019-05-05T07:43:57.749Z,7.60
2019-05-05T07:46:26.655Z,7.70
2019-05-05T07:48:55.548Z,7.80
2019-05-05T07:51:24.711Z,7.90
2019-05-05T07:53:54.888Z,8.10
2019-05-05T07:56:25.239Z,8.30
2019-05-05T07:58:54.451Z,8.30
2019-05-05T08:01:24.473Z,8.40
2019-05-05T08:03:53.946Z,8.70
2019-05-05T08:06:23.707Z,8.80
2019-05-05T08:08:54.558Z,8.70
2019-05-05T08:11:23.848Z,8.60
2019-05-05T08:13:54.610Z,8.70
2019-05-05T08:16:37.487Z,8.70
2019-05-05T08:19:25.257Z,8.80
2019-05-05T08:21:54.308Z,9.00
2019-05-05T08:24:40.964Z,9.10
2019-05-05T08:27:17.275Z,9.00
2019-05-05T08:29:54.302Z,9.00
2019-05-05T08:32:32.762Z,9.10
2019-05-05T08:35:01.343Z,9.20
2019-05-05T08:37:30.472Z,9.20
2019-05-05T08:39:59.431Z,9.30
2019-05-05T08:42:28.346Z,9.20
2019-05-05T08:44:57.235Z,9.10
2019-05-05T08:47:28.209Z,9.00
2019-05-05T08:49:56.758Z,9.00
2019-05-05T08:52:25.666Z,9.10
2019-05-05T08:54:54.622Z,9.00
2019-05-05T08:57:23.721Z,9.00
2019-05-05T08:59:54.500Z,9.20
2019-05-05T09:02:23.889Z,9.30
2019-05-05T09:04:53.803Z,9.10
2019-05-05T09:07:24.344Z,9.10
2019-05-05T09:09:54.640Z,9.30
2019-05-05T09:12:23.797Z,9.40
2019-05-05T09:14:53.866Z,9.60
2019-05-05T09:17:24.368Z,9.50
2019-05-05T09:19:53.801Z,9.50
2019-05-05T09:22:24.568Z,9.50
2019-05-05T09:25:04.381Z,9.40
2019-05-05T09:27:34.928Z,9.10
2019-05-05T09:30:04.971Z,9.10
2019-05-05T09:32:34.408Z,9.10
2019-05-05T09:35:04.778Z,9.20
2019-05-05T09:37:34.081Z,9.40
2019-05-05T09:40:04.500Z,9.60
2019-05-05T09:42:34.212Z,9.90
2019-05-05T09:45:04.783Z,10.20
2019-05-05T09:47:34.398Z,10.30
2019-05-05T09:50:04.398Z,10.20
2019-05-05T09:52:34.348Z,10.20
2019-05-05T09:55:03.925Z,10.40
2019-05-05T09:57:34.388Z,10.60
2019-05-05T10:00:08.279Z,10.80
2019-05-05T10:02:39.456Z,10.90
2019-05-05T10:05:09.075Z,10.70
2019-05-05T10:07:38.191Z,10.80
2019-05-05T10:10:07.752Z,11.20
2019-05-05T10:12:36.641Z,11.70
2019-05-05T10:15:07.792Z,11.90
2019-05-05T10:17:36.860Z,11.80
2019-05-05T10:20:07.115Z,11.70
2019-05-05T10:22:36.361Z,11.20
2019-05-05T10:25:26.172Z,11.30
2019-05-05T10:27:55.530Z,11.50
2019-05-05T10:30:24.458Z,11.60
2019-05-05T10:32:54.566Z,11.90
2019-05-05T10:35:23.942Z,12.30
2019-05-05T10:37:54.491Z,12.60
2019-05-05T10:40:25.201Z,12.80
2019-05-05T10:42:54.204Z,12.70
2019-05-05T10:45:24.448Z,13.00
2019-05-05T10:47:54.116Z,13.40
2019-05-05T10:50:24.667Z,13.40
2019-05-05T10:52:54.014Z,12.90
2019-05-05T10:55:24.039Z,13.00
2019-05-05T10:57:54.298Z,13.30
2019-05-05T11:00:47.134Z,13.60
2019-05-05T11:03:16.334Z,13.60
2019-05-05T11:05:46.915Z,13.60
2019-05-05T11:08:15.962Z,13.90
2019-05-05T11:10:45.286Z,14.30
2019-05-05T11:13:14.474Z,14.40
2019-05-05T11:15:44.393Z,14.30
2019-05-05T11:18:14.790Z,14.00
2019-05-05T11:20:44.901Z,13.80
2019-05-05T11:23:15.075Z,13.70
2019-05-05T11:25:44.458Z,13.30
2019-05-05T11:28:13.782Z,12.70
2019-05-05T11:30:45.712Z,12.90
2019-05-05T11:33:34.793Z,13.10
2019-05-05T11:36:08.128Z,13.20
2019-05-05T11:38:37.074Z,13.40
2019-05-05T11:41:06.001Z,13.20
2019-05-05T11:43:34.904Z,13.10
2019-05-05T11:46:03.974Z,13.10
2019-05-05T11:48:34.483Z,13.10
2019-05-05T11:51:04.478Z,13.20
2019-05-05T11:53:34.095Z,13.00
2019-05-05T11:56:04.199Z,12.90
2019-05-05T11:58:34.057Z,12.60
2019-05-05T12:01:03.710Z,12.30
2019-05-05T12:03:33.962Z,11.90
2019-05-05T12:06:04.038Z,12.00
2019-05-05T12:08:34.509Z,12.80
2019-05-05T12:11:04.916Z,13.90
2019-05-05T12:13:33.818Z,14.10
2019-05-05T12:16:04.789Z,13.70
2019-05-05T12:18:34.441Z,12.90
2019-05-05T12:21:05.141Z,12.40
2019-05-05T12:23:34.262Z,12.30
2019-05-05T12:26:16.911Z,12.40
2019-05-05T12:28:50.658Z,12.70
2019-05-05T12:31:27.111Z,12.50
2019-05-05T12:33:57.612Z,12.40
2019-05-05T12:36:26.523Z,12.20
2019-05-05T12:38:55.428Z,11.90
2019-05-05T12:41:24.386Z,11.60
2019-05-05T12:43:54.887Z,11.70
2019-05-05T12:46:34.441Z,11.80
2019-05-05T12:49:05.045Z,11.90
2019-05-05T12:51:34.348Z,11.90
2019-05-05T12:54:04.478Z,12.10
2019-05-05T12:56:34.096Z,12.10
2019-05-05T12:59:04.795Z,12.10
2019-05-05T13:01:37.977Z,12.20
2019-05-05T13:04:06.920Z,12.20
2019-05-05T13:06:35.857Z,12.40
2019-05-05T13:09:07.305Z,13.10
2019-05-05T13:11:36.689Z,13.40
2019-05-05T13:14:05.994Z,13.30
2019-05-05T13:16:34.955Z,13.20
2019-05-05T13:19:05.561Z,13.10
2019-05-05T13:21:44.806Z,12.90
2019-05-05T13:24:24.123Z,12.70
2019-05-05T13:26:54.643Z,12.50
2019-05-05T13:29:24.588Z,12.40
2019-05-05T13:31:54.430Z,12.20
2019-05-05T13:34:23.526Z,12.30
2019-05-05T13:36:52.422Z,12.40
2019-05-05T13:39:21.443Z,12.40
2019-05-05T13:41:50.410Z,12.60
2019-05-05T13:44:20.872Z,12.70
2019-05-05T13:46:49.800Z,12.80
2019-05-05T13:49:20.360Z,12.90
2019-05-05T13:51:49.288Z,12.80
2019-05-05T13:54:18.176Z,12.80
2019-05-05T13:56:47.230Z,12.70
2019-05-05T13:59:16.146Z,12.70
2019-05-05T14:01:45.050Z,12.50
2019-05-05T14:04:14.003Z,12.30
2019-05-05T14:06:44.466Z,12.40
2019-05-05T14:09:13.951Z,12.50
2019-05-05T14:11:44.533Z,12.30
2019-05-05T14:14:13.896Z,12.20
2019-05-05T14:16:44.683Z,12.20
2019-05-05T14:19:14.631Z,12.30
2019-05-05T14:21:44.545Z,12.40
2019-05-05T14:24:18.039Z,12.20
2019-05-05T14:26:46.971Z,12.20
2019-05-05T14:29:17.493Z,12.10
2019-05-05T14:31:46.407Z,12.00
2019-05-05T14:34:16.876Z,11.90
2019-05-05T14:36:47.463Z,11.80
2019-05-05T14:39:17.982Z,11.80
2019-05-05T14:41:46.904Z,11.80
2019-05-05T14:44:15.841Z,11.80
2019-05-05T14:46:44.786Z,11.90
2019-05-05T14:49:14.038Z,11.90
2019-05-05T14:51:44.656Z,11.80
2019-05-05T14:54:14.858Z,11.90
2019-05-05T14:56:44.159Z,12.00
2019-05-05T14:59:14.262Z,11.90
2019-05-05T15:01:44.718Z,11.80
2019-05-05T15:04:15.454Z,11.70
2019-05-05T15:06:48.617Z,11.80
2019-05-05T15:09:19.161Z,11.80
2019-05-05T15:11:58.428Z,11.70
2019-05-05T15:14:27.373Z,11.80
2019-05-05T15:16:56.287Z,11.90
2019-05-05T15:19:25.186Z,11.90
2019-05-05T15:21:54.151Z,12.00
2019-05-05T15:24:24.443Z,12.00
2019-05-05T15:26:54.997Z,11.90
2019-05-05T15:29:25.178Z,11.70
2019-05-05T15:31:54.299Z,11.70
2019-05-05T15:34:24.064Z,11.60
2019-05-05T15:36:54.699Z,11.50
2019-05-05T15:39:24.601Z,11.40
2019-05-05T15:41:54.228Z,11.30
2019-05-05T15:44:24.084Z,11.30
2019-05-05T15:46:57.601Z,11.20
2019-05-05T15:49:24.017Z,11.10
2019-05-05T15:51:53.930Z,11.00
2019-05-05T15:54:23.664Z,10.90
2019-05-05T15:57:04.966Z,10.70
2019-05-05T15:59:23.857Z,10.50
2019-05-05T16:01:54.740Z,10.40
2019-05-05T16:04:23.756Z,10.20
2019-05-05T16:06:54.053Z,10.10
2019-05-05T16:09:23.183Z,9.90
2019-05-05T16:11:54.411Z,9.90
2019-05-05T16:14:25.655Z,9.80
2019-05-05T16:16:56.198Z,9.90
2019-05-05T16:19:28.076Z,9.90
2019-05-05T16:21:58.752Z,10.00
2019-05-05T16:24:29.247Z,10.00
2019-05-05T16:26:58.193Z,10.10
2019-05-05T16:29:27.109Z,10.30
2019-05-05T16:31:56.009Z,10.30
2019-05-05T16:34:24.958Z,10.30
2019-05-05T16:36:54.563Z,10.30
2019-05-05T16:39:25.685Z,10.60
2019-05-05T16:41:54.794Z,10.80
2019-05-05T16:44:23.698Z,10.90
2019-05-05T16:46:53.984Z,10.90
2019-05-05T16:49:23.073Z,11.10
2019-05-05T16:51:54.500Z,11.20
2019-05-05T16:54:25.156Z,11.30
2019-05-05T16:56:54.056Z,11.20
2019-05-05T16:59:23.745Z,10.80
2019-05-05T17:01:54.110Z,10.70
2019-05-05T17:04:24.324Z,10.50
2019-05-05T17:06:54.700Z,10.30
2019-05-05T17:09:24.150Z,10.30
2019-05-05T17:12:11.319Z,10.20
2019-05-05T17:14:44.427Z,10.40
2019-05-05T17:17:31.156Z,10.60
2019-05-05T17:20:04.788Z,10.90
2019-05-05T17:22:35.323Z,11.10
2019-05-05T17:25:04.904Z,11.40
2019-05-05T17:27:47.020Z,11.20
2019-05-05T17:30:06.102Z,10.90
2019-05-05T17:32:35.006Z,10.80
2019-05-05T17:35:04.011Z,10.60
2019-05-05T17:37:33.565Z,10.40
2019-05-05T17:40:20.439Z,10.30
2019-05-05T17:42:58.171Z,10.20
2019-05-05T17:45:31.444Z,10.10
2019-05-05T17:48:07.702Z,10.00
2019-05-05T17:50:56.043Z,9.90
2019-05-05T17:53:29.272Z,9.90
2019-05-05T17:55:59.741Z,9.80
2019-05-05T17:58:28.767Z,9.80
2019-05-05T18:00:59.233Z,9.70
2019-05-05T18:03:28.122Z,9.60
2019-05-05T18:05:58.636Z,9.50
2019-05-05T18:08:41.254Z,9.40
2019-05-05T18:11:13.518Z,9.20
2019-05-05T18:14:00.135Z,9.20
2019-05-05T18:16:30.223Z,9.10
2019-05-05T18:18:59.128Z,9.00
2019-05-05T18:21:31.736Z,9.00
2019-05-05T18:23:58.917Z,9.10
2019-05-05T18:26:27.801Z,9.10
2019-05-05T18:28:56.696Z,9.10
2019-05-05T18:31:25.670Z,9.20
2019-05-05T18:33:54.563Z,9.20
2019-05-05T18:36:23.476Z,9.30
2019-05-05T18:38:53.880Z,9.30
2019-05-05T18:41:27.460Z,9.20
2019-05-05T18:43:57.990Z,9.20
2019-05-05T18:46:26.944Z,9.20
2019-05-05T18:48:55.903Z,9.10
2019-05-05T18:51:24.843Z,9.10
2019-05-05T18:53:55.012Z,9.00
2019-05-05T18:56:24.056Z,8.90
2019-05-05T18:58:54.306Z,8.90
2019-05-05T19:01:27.527Z,8.90
2019-05-05T19:04:04.379Z,8.90
2019-05-05T19:06:40.711Z,9.00
2019-05-05T19:09:11.217Z,8.90
2019-05-05T19:11:41.038Z,8.90
2019-05-05T19:14:09.974Z,8.80
2019-05-05T19:16:38.997Z,8.80
2019-05-05T19:19:07.884Z,8.70
2019-05-05T19:21:38.400Z,8.70
2019-05-05T19:24:07.358Z,8.70
2019-05-05T19:26:36.262Z,8.60
2019-05-05T19:29:05.244Z,8.30
2019-05-05T19:31:36.342Z,8.10
2019-05-05T19:34:04.873Z,8.00
2019-05-05T19:36:34.286Z,7.90
2019-05-05T19:39:04.121Z,7.80
2019-05-05T19:41:34.822Z,7.70
2019-05-05T19:44:04.827Z,7.70
2019-05-05T19:46:51.845Z,7.60
2019-05-05T19:49:20.809Z,7.60
2019-05-05T19:51:50.669Z,7.60
2019-05-05T19:54:19.572Z,7.50
2019-05-05T19:56:48.512Z,7.50
2019-05-05T19:59:17.462Z,7.50
2019-05-05T20:01:46.337Z,7.50
2019-05-05T20:04:15.265Z,7.50
2019-05-05T20:06:44.482Z,7.40
2019-05-05T20:09:14.198Z,7.40
2019-05-05T20:11:43.920Z,7.40
2019-05-05T20:14:15.131Z,7.40
2019-05-05T20:17:04.261Z,7.40
2019-05-05T20:19:35.494Z,7.40
2019-05-05T20:22:04.621Z,7.40
2019-05-05T20:24:33.761Z,7.40
2019-05-05T20:27:04.614Z,7.40
2019-05-05T20:29:37.051Z,7.40
2019-05-05T20:32:04.433Z,7.40
2019-05-05T20:34:51.377Z,7.30
2019-05-05T20:37:21.005Z,7.40
2019-05-05T20:39:50.967Z,7.40
2019-05-05T20:42:19.904Z,7.40
2019-05-05T20:44:48.803Z,7.30
2019-05-05T20:47:17.706Z,7.30
2019-05-05T20:49:46.699Z,7.30
2019-05-05T20:52:15.636Z,7.40
2019-05-05T20:54:44.536Z,7.30
2019-05-05T20:57:13.486Z,7.40
2019-05-05T20:59:44.378Z,7.30
2019-05-05T21:02:13.677Z,7.30
2019-05-05T21:04:44.593Z,7.30
2019-05-05T21:07:14.031Z,7.40
2019-05-05T21:09:43.177Z,7.30
2019-05-05T21:12:13.833Z,7.30
2019-05-05T21:14:44.618Z,7.30
2019-05-05T21:17:15.540Z,7.30
2019-05-05T21:19:44.504Z,7.30
2019-05-05T21:22:27.043Z,7.20
2019-05-05T21:24:56.948Z,7.10
2019-05-05T21:27:25.848Z,7.20
2019-05-05T21:29:54.784Z,7.20
2019-05-05T21:32:25.389Z,7.20
2019-05-05T21:34:54.431Z,7.20
2019-05-05T21:37:24.876Z,7.20
2019-05-05T21:39:55.215Z,7.20
2019-05-05T21:42:24.425Z,7.20
2019-05-05T21:44:54.304Z,7.10
2019-05-05T21:47:23.984Z,7.10
2019-05-05T21:49:54.270Z,7.10
2019-05-05T21:52:32.100Z,7.20
2019-05-05T21:55:04.216Z,7.10
2019-05-05T21:57:34.848Z,7.20
2019-05-05T22:00:06.906Z,7.10
2019-05-05T22:02:35.816Z,7.10
2019-05-05T22:05:06.445Z,7.10
2019-05-05T22:07:35.393Z,7.10
2019-05-05T22:10:05.248Z,7.10
2019-05-05T22:12:36.370Z,7.10
2019-05-05T22:15:06.029Z,7.10
2019-05-05T22:17:36.496Z,7.00
2019-05-05T22:20:14.324Z,7.00
2019-05-05T22:22:46.512Z,7.00
2019-05-05T22:25:15.501Z,6.90
2019-05-05T22:27:44.436Z,6.80
2019-05-05T22:30:14.260Z,6.70
2019-05-05T22:32:44.091Z,6.60
2019-05-05T22:35:14.013Z,6.60
2019-05-05T22:37:44.149Z,6.60
2019-05-05T22:40:24.386Z,6.50
2019-05-05T22:42:54.663Z,6.50
2019-05-05T22:45:23.945Z,6.40
2019-05-05T22:47:54.309Z,6.40
2019-05-05T22:50:24.674Z,6.40
2019-05-05T22:52:54.497Z,6.40
2019-05-05T22:55:24.751Z,6.50
2019-05-05T22:57:54.382Z,6.40
2019-05-05T23:00:29.236Z,6.40
2019-05-05T23:02:59.244Z,6.30
2019-05-05T23:05:44.864Z,6.30
2019-05-05T23:08:18.012Z,6.30
2019-05-05T23:10:45.388Z,6.30
2019-05-05T23:13:14.341Z,6.30
2019-05-05T23:15:44.800Z,6.30
2019-05-05T23:18:18.084Z,6.40
2019-05-05T23:21:07.287Z,6.30
2019-05-05T23:23:56.031Z,6.40
2019-05-05T23:26:27.776Z,6.30
2019-05-05T23:28:56.724Z,6.30
2019-05-05T23:31:25.632Z,6.30
2019-05-05T23:33:54.950Z,6.30
2019-05-05T23:36:24.297Z,6.30
2019-05-05T23:38:54.914Z,6.30
2019-05-05T23:41:24.129Z,6.30
2019-05-05T23:43:54.475Z,6.30
2019-05-05T23:46:24.119Z,6.30
2019-05-05T23:48:53.796Z,6.30
2019-05-05T23:51:24.245Z,6.30
2019-05-05T23:53:55.024Z,6.20
2019-05-05T23:56:24.157Z,6.20
2019-05-05T23:58:54.928Z,6.20
